Time;durP1;ratioP1;P1;durP2;ratioP2;P2;SDS_P1;SDS_P2;PMS_P1;PMS_P2;Temp;Humidity;BMP_temperature;BMP_pressure;BME280_temperature;BME280_humidity;BME280_pressure;Samples;Min_cycle;Max_cycle;Signal;HPM_P1;HPM_P2
2022/04/01 00:02:07;;;;;;;0.00;0.00;;;;;;;;;;5053466;28;20029;-74
2022/04/01 00:04:33;;;;;;;0.75;0.75;;;;;;;;;;5052109;28;20497;-74
2022/04/01 00:06:59;;;;;;;1.48;1.40;;;;;;;;;;5053537;28;20028;-74
2022/04/01 00:09:27;;;;;;;7.30;6.85;;;;;;;;;;5054452;28;20064;-74
2022/04/01 00:11:53;;;;;;;0.00;0.00;;;;;;;;;;5052041;28;20037;-74
2022/04/01 00:14:19;;;;;;;0.00;0.00;;;;;;;;;;5068038;28;20048;-74
2022/04/01 00:16:46;;;;;;;8.40;2.95;;;;;;;;;;5093500;28;20028;-75
2022/04/01 00:19:13;;;;;;;0.00;0.00;;;;;;;;;;5093429;28;20062;-74
2022/04/01 00:21:39;;;;;;;1.20;1.17;;;;;;;;;;5093347;28;20104;-74
2022/04/01 00:24:06;;;;;;;0.60;0.60;;;;;;;;;;5075292;28;20078;-74
2022/04/01 00:26:33;;;;;;;0.55;0.55;;;;;;;;;;5093075;28;20020;-74
2022/04/01 00:28:59;;;;;;;0.00;0.00;;;;;;;;;;5076791;28;20064;-74
2022/04/01 00:31:25;;;;;;;0.00;0.00;;;;;;;;;;5072993;28;20450;-74
2022/04/01 00:34:15;;;;;;;14.30;13.45;;;;;;;;;;5072758;28;20111;-74
2022/04/01 00:36:38;;;;;;;0.05;0.05;;;;;;;;;;5070474;28;20094;-74
2022/04/01 00:39:04;;;;;;;0.00;0.00;;;;;;;;;;5051230;28;20041;-74
2022/04/01 00:41:30;;;;;;;0.00;0.00;;;;;;;;;;5054848;28;20029;-74
2022/04/01 00:44:17;;;;;;;6.65;6.22;;;;;;;;;;5055148;28;20024;-74
2022/04/01 00:46:44;;;;;;;1.15;1.15;;;;;;;;;;5051665;28;20054;-75
2022/04/01 00:49:11;;;;;;;5.03;4.82;;;;;;;;;;5063001;28;20111;-74
2022/04/01 00:51:38;;;;;;;0.45;0.32;;;;;;;;;;5034741;28;20057;-74
2022/04/01 00:54:05;;;;;;;14.02;12.85;;;;;;;;;;5048594;28;20037;-74
2022/04/01 00:56:32;;;;;;;0.28;0.28;;;;;;;;;;5056938;28;20025;-73
2022/04/01 00:58:59;;;;;;;0.00;0.00;;;;;;;;;;5102356;28;20071;-73
2022/04/01 01:01:26;;;;;;;0.00;0.00;;;;;;;;;;5074001;28;20060;-74
2022/04/01 01:03:53;;;;;;;0.00;0.00;;;;;;;;;;5071427;28;20016;-74
2022/04/01 01:06:20;;;;;;;0.00;0.00;;;;;;;;;;5072295;28;20377;-74
2022/04/01 01:08:47;;;;;;;0.08;0.08;;;;;;;;;;5054030;28;20032;-74
2022/04/01 01:11:14;;;;;;;0.00;0.00;;;;;;;;;;5071948;28;20020;-74
2022/04/01 01:13:41;;;;;;;0.00;0.00;;;;;;;;;;5055010;28;20017;-74
2022/04/01 01:16:07;;;;;;;2.10;1.67;;;;;;;;;;5056178;28;20017;-74
2022/04/01 01:18:34;;;;;;;0.00;0.00;;;;;;;;;;5028193;28;20029;-74
2022/04/01 01:21:01;;;;;;;0.00;0.00;;;;;;;;;;5031418;28;20068;-75
2022/04/01 01:23:29;;;;;;;9.13;8.77;;;;;;;;;;5048669;28;20024;-74
2022/04/01 01:25:56;;;;;;;1.00;0.98;;;;;;;;;;5032092;28;20394;-75
2022/04/01 01:28:23;;;;;;;0.00;0.00;;;;;;;;;;5047026;28;20063;-75
2022/04/01 01:30:50;;;;;;;0.43;0.43;;;;;;;;;;5051751;28;20481;-74
2022/04/01 01:33:20;;;;;;;1.85;1.75;;;;;;;;;;5044628;28;20039;-74
2022/04/01 01:35:46;;;;;;;0.00;0.00;;;;;;;;;;5030784;28;20032;-74
2022/04/01 01:38:13;;;;;;;0.00;0.00;;;;;;;;;;5029258;28;20385;-74
2022/04/01 01:40:39;;;;;;;1.30;1.20;;;;;;;;;;5032668;28;20037;-74
2022/04/01 01:43:06;;;;;;;0.05;0.05;;;;;;;;;;5053148;28;20017;-74
2022/04/01 01:45:33;;;;;;;0.85;0.85;;;;;;;;;;5055926;28;20025;-76
2022/04/01 01:47:59;;;;;;;8.00;1.35;;;;;;;;;;5038120;28;20079;-74
2022/04/01 01:55:55;;;;;;;10.70;6.18;;;;;;;;;;5056215;28;20492;-75
2022/04/01 01:58:21;;;;;;;0.80;0.80;;;;;;;;;;5055267;28;20021;-76
2022/04/01 02:00:48;;;;;;;0.00;0.00;;;;;;;;;;5042457;28;20090;-75
2022/04/01 02:03:14;;;;;;;0.00;0.00;;;;;;;;;;5071436;28;20488;-76
2022/04/01 02:05:40;;;;;;;1.15;1.15;;;;;;;;;;5038459;28;20112;-75
2022/04/01 02:08:08;;;;;;;0.30;0.30;;;;;;;;;;5054831;28;20126;-75
2022/04/01 02:10:35;;;;;;;0.20;0.20;;;;;;;;;;5037276;28;20392;-75
2022/04/01 02:13:01;;;;;;;2.17;1.98;;;;;;;;;;5035183;28;20038;-76
2022/04/01 02:15:28;;;;;;;0.00;0.00;;;;;;;;;;5072440;28;20085;-75
2022/04/01 02:17:55;;;;;;;0.00;0.00;;;;;;;;;;5074941;28;20732;-75
2022/04/01 02:20:21;;;;;;;1.30;1.25;;;;;;;;;;5073911;28;20020;-75
2022/04/01 02:22:48;;;;;;;0.10;0.10;;;;;;;;;;5073889;28;20025;-76
2022/04/01 02:25:14;;;;;;;0.13;0.13;;;;;;;;;;5060245;28;20729;-76
2022/04/01 02:27:42;;;;;;;0.00;0.00;;;;;;;;;;5075909;28;20029;-75
2022/04/01 02:30:11;;;;;;;6.63;6.20;;;;;;;;;;5074507;28;20028;-76
2022/04/01 02:32:39;;;;;;;3.78;1.02;;;;;;;;;;5083382;28;20025;-76
2022/04/01 02:35:05;;;;;;;3.15;2.92;;;;;;;;;;5084972;28;20028;-76
2022/04/01 02:37:32;;;;;;;3.83;2.92;;;;;;;;;;5090642;28;20024;-75
2022/04/01 02:39:58;;;;;;;0.00;0.00;;;;;;;;;;5071785;28;20021;-76
2022/04/01 02:42:24;;;;;;;12.90;11.70;;;;;;;;;;5089552;28;20020;-75
2022/04/01 02:44:51;;;;;;;4.28;4.03;;;;;;;;;;5074045;28;20036;-76
2022/04/01 02:47:17;;;;;;;0.47;0.47;;;;;;;;;;5072369;28;20025;-75
2022/04/01 02:49:44;;;;;;;0.00;0.00;;;;;;;;;;5067161;28;20036;-75
2022/04/01 02:52:10;;;;;;;2.28;1.70;;;;;;;;;;5058847;28;20028;-76
2022/04/01 02:54:37;;;;;;;0.60;0.60;;;;;;;;;;5067047;28;20127;-76
2022/04/01 02:57:04;;;;;;;4.57;3.42;;;;;;;;;;5053198;28;20039;-76
2022/04/01 02:59:30;;;;;;;0.00;0.00;;;;;;;;;;5074401;28;20024;-76
2022/04/01 03:01:57;;;;;;;0.20;0.20;;;;;;;;;;5055310;28;20039;-77
2022/04/01 03:04:23;;;;;;;2.50;1.55;;;;;;;;;;5054246;28;20024;-76
2022/04/01 03:06:50;;;;;;;3.70;3.42;;;;;;;;;;5068808;28;20055;-76
2022/04/01 03:09:16;;;;;;;7.15;6.28;;;;;;;;;;5064984;28;20020;-76
2022/04/01 03:11:42;;;;;;;0.10;0.10;;;;;;;;;;5065609;28;20040;-77
2022/04/01 03:14:11;;;;;;;0.00;0.00;;;;;;;;;;5051960;28;20052;-77
2022/04/01 03:16:39;;;;;;;0.10;0.10;;;;;;;;;;5068178;28;20029;-77
2022/04/01 03:19:08;;;;;;;0.00;0.00;;;;;;;;;;5063541;28;20068;-76
2022/04/01 03:21:35;;;;;;;8.80;3.92;;;;;;;;;;5047732;28;20033;-75
2022/04/01 03:24:02;;;;;;;2.22;2.13;;;;;;;;;;5071615;28;20116;-76
2022/04/01 03:26:28;;;;;;;3.97;3.72;;;;;;;;;;5052716;28;20025;-76
2022/04/01 03:28:55;;;;;;;0.63;0.63;;;;;;;;;;5067363;28;20025;-75
2022/04/01 03:31:22;;;;;;;0.10;0.10;;;;;;;;;;5066819;28;20124;-76
2022/04/01 03:33:48;;;;;;;0.00;0.00;;;;;;;;;;5050843;28;20400;-74
2022/04/01 03:36:15;;;;;;;4.40;4.10;;;;;;;;;;5064889;28;20025;-75
2022/04/01 03:38:42;;;;;;;0.40;0.40;;;;;;;;;;5064288;28;20070;-74
2022/04/01 03:41:08;;;;;;;3.38;3.03;;;;;;;;;;5048225;28;20035;-75
2022/04/01 03:43:35;;;;;;;2.63;2.50;;;;;;;;;;5048299;28;20032;-73
2022/04/01 03:46:06;;;;;;;0.52;0.28;;;;;;;;;;5045502;28;20120;-76
2022/04/01 03:48:39;;;;;;;16.35;8.63;;;;;;;;;;5073570;28;20037;-74
2022/04/01 03:51:06;;;;;;;8.45;5.15;;;;;;;;;;5087610;28;20029;-74
2022/04/01 03:53:34;;;;;;;4.95;4.18;;;;;;;;;;5052063;28;20025;-74
2022/04/01 03:56:02;;;;;;;2.72;1.98;;;;;;;;;;5068617;28;20048;-76
2022/04/01 03:58:30;;;;;;;2.78;1.02;;;;;;;;;;5060971;28;20020;-75
2022/04/01 04:01:00;;;;;;;11.45;10.32;;;;;;;;;;5050498;28;20025;-74
2022/04/01 04:03:26;;;;;;;11.40;7.43;;;;;;;;;;5047346;28;20055;-75
2022/04/01 04:05:53;;;;;;;6.88;4.22;;;;;;;;;;5068652;28;20545;-75
2022/04/01 04:08:21;;;;;;;5.82;5.47;;;;;;;;;;5068964;28;20372;-76
2022/04/01 04:10:48;;;;;;;5.50;4.97;;;;;;;;;;5049219;28;20039;-76
2022/04/01 04:13:15;;;;;;;0.00;0.00;;;;;;;;;;5069873;28;20634;-77
2022/04/01 04:16:00;;;;;;;12.88;8.85;;;;;;;;;;5051754;28;20063;-76
2022/04/01 04:18:32;;;;;;;9.10;5.70;;;;;;;;;;5070528;28;20029;-76
2022/04/01 04:21:25;;;;;;;2.83;1.80;;;;;;;;;;5043329;28;20025;-77
2022/04/01 04:23:56;;;;;;;11.65;5.82;;;;;;;;;;5064769;28;20377;-76
2022/04/01 04:26:32;;;;;;;4.35;3.25;;;;;;;;;;5048080;28;20024;-75
2022/04/01 04:29:08;;;;;;;7.65;4.70;;;;;;;;;;5070348;28;20046;-77
2022/04/01 04:31:35;;;;;;;0.45;0.45;;;;;;;;;;5046958;28;20025;-75
2022/04/01 04:34:03;;;;;;;2.90;2.80;;;;;;;;;;5065308;28;20073;-75
2022/04/01 04:36:38;;;;;;;3.25;2.75;;;;;;;;;;5042013;28;20144;-74
2022/04/01 04:39:05;;;;;;;7.75;5.68;;;;;;;;;;5065377;28;20028;-75
2022/04/01 04:41:32;;;;;;;1.10;1.02;;;;;;;;;;5050846;28;20020;-75
2022/04/01 04:43:59;;;;;;;0.00;0.00;;;;;;;;;;5065660;28;20427;-75
2022/04/01 04:46:26;;;;;;;0.73;0.73;;;;;;;;;;5047697;28;20029;-74
2022/04/01 04:48:54;;;;;;;2.50;2.30;;;;;;;;;;5050888;28;20020;-75
2022/04/01 04:51:28;;;;;;;4.40;4.10;;;;;;;;;;5043971;28;20035;-74
2022/04/01 04:53:57;;;;;;;21.50;7.05;;;;;;;;;;5047272;28;20017;-75
2022/04/01 04:56:25;;;;;;;1.45;1.40;;;;;;;;;;5044779;28;20039;-75
2022/04/01 04:58:53;;;;;;;1.15;1.15;;;;;;;;;;5065853;28;20055;-75
2022/04/01 05:01:25;;;;;;;13.63;12.65;;;;;;;;;;5065147;28;20024;-75
2022/04/01 05:03:51;;;;;;;0.35;0.35;;;;;;;;;;5063940;28;20565;-74
2022/04/01 05:06:20;;;;;;;0.30;0.30;;;;;;;;;;5064849;28;20541;-74
2022/04/01 05:09:05;;;;;;;2.55;2.45;;;;;;;;;;5043327;28;20017;-74
2022/04/01 05:11:41;;;;;;;7.35;6.80;;;;;;;;;;5049129;28;20029;-75
2022/04/01 05:14:13;;;;;;;1.60;1.50;;;;;;;;;;5044138;28;20040;-75
2022/04/01 05:16:53;;;;;;;3.63;3.38;;;;;;;;;;5062361;28;20020;-74
2022/04/01 05:19:27;;;;;;;3.05;2.75;;;;;;;;;;5030917;28;20060;-75
2022/04/01 05:22:10;;;;;;;3.20;3.10;;;;;;;;;;5041913;28;20111;-75
2022/04/01 05:24:42;;;;;;;0.15;0.15;;;;;;;;;;5043287;28;20044;-76
2022/04/01 05:27:30;;;;;;;3.33;3.13;;;;;;;;;;5051664;28;20024;-74
2022/04/01 05:30:13;;;;;;;10.30;6.60;;;;;;;;;;5061746;28;20052;-74
2022/04/01 05:33:01;;;;;;;2.53;0.80;;;;;;;;;;5047688;28;20039;-75
2022/04/01 05:35:31;;;;;;;4.38;1.92;;;;;;;;;;5044049;28;20116;-75
2022/04/01 05:37:59;;;;;;;4.90;4.38;;;;;;;;;;5064097;28;20036;-73
2022/04/01 05:40:27;;;;;;;5.93;5.15;;;;;;;;;;5038952;28;20028;-74
2022/04/01 05:42:58;;;;;;;3.75;3.55;;;;;;;;;;5066334;28;20071;-76
2022/04/01 05:45:32;;;;;;;0.25;0.25;;;;;;;;;;5048575;28;20485;-74
2022/04/01 05:47:59;;;;;;;6.22;1.70;;;;;;;;;;5063698;28;20063;-74
2022/04/01 05:50:26;;;;;;;8.95;8.30;;;;;;;;;;5059932;28;20029;-74
2022/04/01 05:52:53;;;;;;;0.25;0.25;;;;;;;;;;5045965;28;20188;-74
2022/04/01 05:55:25;;;;;;;0.20;0.20;;;;;;;;;;5065429;28;20523;-73
2022/04/01 05:57:52;;;;;;;1.80;1.13;;;;;;;;;;5050486;28;20043;-73
2022/04/01 06:00:18;;;;;;;0.57;0.52;;;;;;;;;;5067455;28;20518;-74
2022/04/01 06:02:54;;;;;;;0.00;0.00;;;;;;;;;;5045243;28;20032;-75
2022/04/01 06:05:20;;;;;;;1.15;0.98;;;;;;;;;;5061531;28;20017;-74
2022/04/01 06:07:47;;;;;;;2.55;1.17;;;;;;;;;;5064169;28;20017;-74
2022/04/01 06:10:24;;;;;;;0.40;0.40;;;;;;;;;;5062370;28;20496;-75
2022/04/01 06:13:09;;;;;;;0.50;0.50;;;;;;;;;;5064945;28;20123;-76
2022/04/01 06:15:39;;;;;;;1.77;1.52;;;;;;;;;;5057368;28;20036;-75
2022/04/01 06:18:08;;;;;;;3.42;2.65;;;;;;;;;;5063274;28;20480;-76
2022/04/01 06:20:37;;;;;;;3.35;0.98;;;;;;;;;;5064385;28;20033;-76
2022/04/01 06:23:14;;;;;;;1.95;1.77;;;;;;;;;;5041764;28;20485;-74
2022/04/01 06:25:44;;;;;;;0.20;0.20;;;;;;;;;;5063533;28;20021;-76
2022/04/01 06:28:24;;;;;;;1.00;0.45;;;;;;;;;;5061419;28;20112;-75
2022/04/01 06:30:50;;;;;;;4.28;2.97;;;;;;;;;;5042938;28;20032;-75
2022/04/01 06:33:33;;;;;;;2.45;2.25;;;;;;;;;;5065675;28;20035;-75
2022/04/01 06:36:05;;;;;;;0.05;0.00;;;;;;;;;;5049706;28;20024;-76
2022/04/01 06:39:10;;;;;;;0.00;0.00;;;;;;;;;;5060935;28;20016;-75
2022/04/01 06:41:40;;;;;;;8.82;8.20;;;;;;;;;;4952395;28;20039;-75
2022/04/01 06:44:10;;;;;;;5.28;2.40;;;;;;;;;;4952712;28;20054;-77
2022/04/01 06:46:48;;;;;;;0.40;0.40;;;;;;;;;;5014877;28;20021;-76
2022/04/01 06:49:15;;;;;;;0.57;0.57;;;;;;;;;;5069158;28;20040;-76
2022/04/01 06:51:41;;;;;;;0.75;0.55;;;;;;;;;;5048840;28;20425;-77
2022/04/01 06:54:07;;;;;;;0.30;0.30;;;;;;;;;;5068818;28;20035;-77
2022/04/01 06:56:34;;;;;;;1.08;0.80;;;;;;;;;;5054197;28;20024;-77
2022/04/01 06:59:00;;;;;;;0.88;0.70;;;;;;;;;;5062034;28;20036;-77
2022/04/01 07:01:27;;;;;;;0.95;0.80;;;;;;;;;;5062023;28;20108;-76
2022/04/01 07:03:53;;;;;;;0.60;0.60;;;;;;;;;;5063824;28;20108;-78
2022/04/01 07:06:20;;;;;;;0.20;0.20;;;;;;;;;;5065979;28;20031;-77
2022/04/01 07:08:47;;;;;;;0.85;0.80;;;;;;;;;;5051041;28;20056;-80
2022/04/01 07:11:14;;;;;;;6.82;3.63;;;;;;;;;;5047655;28;20031;-76
2022/04/01 07:13:41;;;;;;;0.00;0.00;;;;;;;;;;5064487;28;20488;-78
2022/04/01 07:16:07;;;;;;;0.55;0.55;;;;;;;;;;5040021;28;20476;-74
2022/04/01 07:18:34;;;;;;;1.25;1.05;;;;;;;;;;5031770;28;20033;-75
2022/04/01 07:21:01;;;;;;;0.03;0.03;;;;;;;;;;5041330;28;21562;-75
2022/04/01 07:23:28;;;;;;;0.52;0.52;;;;;;;;;;5028710;28;20024;-75
2022/04/01 07:25:56;;;;;;;0.00;0.00;;;;;;;;;;5047085;28;20029;-76
2022/04/01 07:28:22;;;;;;;0.40;0.32;;;;;;;;;;5024423;28;20504;-72
2022/04/01 07:30:50;;;;;;;0.43;0.30;;;;;;;;;;5045246;28;20033;-74
2022/04/01 07:33:17;;;;;;;2.67;1.20;;;;;;;;;;5048737;28;20617;-72
2022/04/01 07:35:47;;;;;;;0.00;0.00;;;;;;;;;;5047639;28;20033;-71
2022/04/01 07:38:14;;;;;;;1.95;0.98;;;;;;;;;;5046289;28;20552;-74
2022/04/01 07:40:40;;;;;;;8.85;1.35;;;;;;;;;;5042115;28;20040;-72
2022/04/01 07:43:06;;;;;;;0.10;0.10;;;;;;;;;;5034260;28;20022;-72
2022/04/01 07:45:37;;;;;;;0.77;0.43;;;;;;;;;;5037743;28;20036;-74
2022/04/01 07:48:04;;;;;;;0.50;0.50;;;;;;;;;;5022166;28;20444;-73
2022/04/01 07:50:30;;;;;;;0.20;0.20;;;;;;;;;;5035147;28;20053;-74
2022/04/01 07:52:57;;;;;;;0.73;0.68;;;;;;;;;;5025486;28;20059;-74
2022/04/01 07:55:23;;;;;;;0.10;0.05;;;;;;;;;;5027178;28;20091;-74
2022/04/01 07:57:50;;;;;;;0.00;0.00;;;;;;;;;;5026146;28;20104;-74
2022/04/01 08:00:17;;;;;;;15.23;2.33;;;;;;;;;;5047277;28;20033;-74
2022/04/01 08:02:47;;;;;;;1.27;0.70;;;;;;;;;;5030295;28;20040;-75
2022/04/01 08:05:14;;;;;;;1.02;0.57;;;;;;;;;;5048042;28;20471;-75
2022/04/01 08:07:40;;;;;;;3.30;0.90;;;;;;;;;;5048935;28;20023;-76
2022/04/01 08:10:07;;;;;;;0.32;0.32;;;;;;;;;;5031232;28;20037;-75
2022/04/01 08:12:34;;;;;;;4.55;1.83;;;;;;;;;;5027685;28;20033;-75
2022/04/01 08:15:01;;;;;;;0.80;0.80;;;;;;;;;;5038997;28;20068;-75
2022/04/01 08:17:28;;;;;;;0.00;0.00;;;;;;;;;;5044217;28;20040;-74
2022/04/01 08:19:54;;;;;;;4.05;1.17;;;;;;;;;;5046191;28;20025;-75
2022/04/01 08:22:20;;;;;;;0.55;0.55;;;;;;;;;;5025991;28;20272;-75
2022/04/01 08:24:47;;;;;;;0.08;0.08;;;;;;;;;;5048434;28;20021;-76
2022/04/01 08:27:14;;;;;;;1.85;0.93;;;;;;;;;;5050809;28;20493;-72
2022/04/01 08:29:41;;;;;;;1.65;0.75;;;;;;;;;;5036005;28;20045;-73
2022/04/01 08:32:07;;;;;;;0.63;0.52;;;;;;;;;;5030260;28;20030;-74
2022/04/01 08:34:34;;;;;;;0.00;0.00;;;;;;;;;;5033439;28;20033;-73
2022/04/01 08:37:03;;;;;;;1.35;1.33;;;;;;;;;;5056843;28;20025;-73
2022/04/01 08:39:29;;;;;;;4.38;1.23;;;;;;;;;;5040281;28;20029;-74
2022/04/01 08:41:57;;;;;;;1.65;0.88;;;;;;;;;;5052217;28;20087;-73
2022/04/01 08:44:26;;;;;;;1.42;0.60;;;;;;;;;;5040249;28;20024;-72
2022/04/01 08:46:54;;;;;;;11.70;1.00;;;;;;;;;;5053689;28;20033;-73
2022/04/01 08:49:21;;;;;;;1.30;1.25;;;;;;;;;;5049045;28;20021;-74
2022/04/01 08:51:47;;;;;;;0.65;0.65;;;;;;;;;;5028845;28;20476;-72
2022/04/01 08:54:14;;;;;;;3.65;3.50;;;;;;;;;;5045402;28;20060;-72
2022/04/01 08:56:40;;;;;;;1.30;0.63;;;;;;;;;;5024578;28;20142;-75
2022/04/01 08:59:06;;;;;;;0.73;0.73;;;;;;;;;;5047988;28;20517;-76
2022/04/01 09:01:43;;;;;;;0.77;0.75;;;;;;;;;;5055380;28;20040;-78
2022/04/01 09:04:16;;;;;;;1.30;0.80;;;;;;;;;;5050847;28;20070;-76
2022/04/01 09:06:43;;;;;;;4.97;4.60;;;;;;;;;;5049835;28;20020;-77
2022/04/01 09:09:22;;;;;;;1.77;1.67;;;;;;;;;;5029561;28;20171;-75
2022/04/01 09:12:08;;;;;;;0.20;0.20;;;;;;;;;;5028670;28;20020;-76
2022/04/01 09:14:35;;;;;;;0.00;0.00;;;;;;;;;;5020293;28;20041;-77
2022/04/01 09:17:02;;;;;;;0.80;0.47;;;;;;;;;;5049782;28;20031;-76
2022/04/01 09:19:30;;;;;;;0.65;0.65;;;;;;;;;;5062044;28;20408;-79
2022/04/01 09:21:59;;;;;;;0.00;0.00;;;;;;;;;;5067156;28;20035;-74
2022/04/01 09:24:26;;;;;;;1.00;1.00;;;;;;;;;;5046302;28;20032;-76
2022/04/01 09:26:55;;;;;;;2.08;1.63;;;;;;;;;;5052745;28;20016;-77
2022/04/01 09:29:24;;;;;;;0.85;0.85;;;;;;;;;;5064742;28;20384;-78
2022/04/01 09:31:53;;;;;;;0.70;0.70;;;;;;;;;;5065165;28;20161;-78
2022/04/01 09:34:19;;;;;;;0.57;0.57;;;;;;;;;;5064063;28;20513;-81
2022/04/01 09:36:45;;;;;;;0.30;0.30;;;;;;;;;;5045569;28;20085;-77
2022/04/01 09:39:16;;;;;;;6.32;5.78;;;;;;;;;;5068850;28;20028;-76
2022/04/01 09:41:43;;;;;;;0.20;0.13;;;;;;;;;;5057001;28;20009;-76
2022/04/01 09:44:09;;;;;;;0.40;0.40;;;;;;;;;;5075177;28;20033;-76
2022/04/01 09:46:40;;;;;;;7.63;1.27;;;;;;;;;;5046930;28;20040;-75
2022/04/01 09:49:07;;;;;;;15.52;14.18;;;;;;;;;;5066873;28;20028;-79
2022/04/01 09:51:34;;;;;;;0.45;0.25;;;;;;;;;;5062334;28;20025;-75
2022/04/01 09:54:04;;;;;;;9.50;0.43;;;;;;;;;;5063295;28;20516;-75
2022/04/01 09:56:37;;;;;;;2.05;1.33;;;;;;;;;;5064408;28;20484;-75
2022/04/01 09:59:07;;;;;;;0.88;0.28;;;;;;;;;;5063023;28;20052;-74
2022/04/01 10:01:34;;;;;;;1.70;1.60;;;;;;;;;;5045855;28;20090;-74
2022/04/01 10:04:00;;;;;;;4.75;4.40;;;;;;;;;;5065075;28;20096;-73
2022/04/01 10:06:28;;;;;;;0.45;0.20;;;;;;;;;;5050125;28;20020;-71
2022/04/01 10:08:57;;;;;;;0.10;0.00;;;;;;;;;;5068720;28;20017;-72
2022/04/01 10:11:23;;;;;;;1.27;1.05;;;;;;;;;;5053153;28;20027;-71
2022/04/01 10:13:50;;;;;;;1.00;1.00;;;;;;;;;;5065981;28;20053;-72
2022/04/01 10:16:17;;;;;;;6.85;0.45;;;;;;;;;;5061203;28;20440;-70
2022/04/01 10:18:47;;;;;;;0.65;0.65;;;;;;;;;;5066131;28;20055;-72
2022/04/01 10:21:14;;;;;;;0.20;0.20;;;;;;;;;;5067297;28;20036;-74
2022/04/01 10:23:44;;;;;;;1.00;0.90;;;;;;;;;;5040951;28;20068;-72
2022/04/01 10:26:15;;;;;;;0.95;0.95;;;;;;;;;;5046768;28;20036;-71
2022/04/01 10:28:44;;;;;;;1.30;0.85;;;;;;;;;;5054923;28;20392;-73
2022/04/01 10:31:15;;;;;;;0.52;0.38;;;;;;;;;;5063952;28;21028;-74
2022/04/01 10:33:41;;;;;;;0.00;0.00;;;;;;;;;;5049380;28;20020;-73
2022/04/01 10:36:26;;;;;;;0.15;0.15;;;;;;;;;;5068348;28;20094;-76
2022/04/01 10:39:07;;;;;;;0.00;0.00;;;;;;;;;;5070168;28;20024;-74
2022/04/01 10:41:33;;;;;;;0.00;0.00;;;;;;;;;;5051614;28;20033;-71
2022/04/01 10:44:01;;;;;;;0.20;0.15;;;;;;;;;;5053631;28;20025;-73
2022/04/01 10:46:27;;;;;;;3.78;3.50;;;;;;;;;;5067990;28;20013;-72
2022/04/01 10:52:04;;;;;;;3.83;1.25;;;;;;;;;;5059307;28;20070;-72
2022/04/01 10:54:31;;;;;;;0.00;0.00;;;;;;;;;;5064445;28;20050;-73
2022/04/01 10:57:00;;;;;;;0.70;0.22;;;;;;;;;;5047889;28;20024;-73
2022/04/01 10:59:27;;;;;;;0.70;0.52;;;;;;;;;;5066494;28;20028;-71
2022/04/01 11:01:53;;;;;;;1.75;1.08;;;;;;;;;;5074878;28;20028;-73
2022/04/01 11:04:19;;;;;;;0.10;0.10;;;;;;;;;;5050050;28;20025;-73
2022/04/01 11:06:52;;;;;;;2.10;1.92;;;;;;;;;;5068791;28;20108;-72
2022/04/01 11:09:35;;;;;;;0.10;0.10;;;;;;;;;;5048419;28;20032;-73
2022/04/01 11:12:25;;;;;;;0.00;0.00;;;;;;;;;;5062919;28;20026;-73
2022/04/01 11:17:36;;;;;;;0.65;0.35;;;;;;;;;;5064723;28;20025;-72
2022/04/01 11:20:04;;;;;;;0.65;0.45;;;;;;;;;;5058759;28;20028;-74
2022/04/01 11:22:36;;;;;;;0.00;0.00;;;;;;;;;;5066987;28;20109;-73
2022/04/01 11:25:03;;;;;;;0.00;0.00;;;;;;;;;;5069830;28;20024;-75
2022/04/01 11:27:29;;;;;;;0.00;0.00;;;;;;;;;;5070959;28;20024;-73
2022/04/01 11:30:09;;;;;;;0.10;0.10;;;;;;;;;;5069043;28;20052;-71
2022/04/01 11:32:36;;;;;;;0.00;0.00;;;;;;;;;;5067687;28;20029;-73
2022/04/01 11:35:04;;;;;;;0.10;0.10;;;;;;;;;;5066745;28;20028;-73
2022/04/01 11:37:34;;;;;;;0.32;0.32;;;;;;;;;;5070073;28;20025;-74
2022/04/01 11:40:27;;;;;;;3.33;3.00;;;;;;;;;;5069687;28;20090;-74
2022/04/01 11:42:58;;;;;;;0.00;0.00;;;;;;;;;;5069801;28;20025;-73
2022/04/01 11:45:26;;;;;;;3.67;2.20;;;;;;;;;;5069375;28;20025;-73
2022/04/01 11:47:54;;;;;;;0.00;0.00;;;;;;;;;;5069743;28;20052;-72
2022/04/01 11:50:21;;;;;;;0.00;0.00;;;;;;;;;;5065867;28;20027;-73
2022/04/01 11:52:53;;;;;;;0.00;0.00;;;;;;;;;;5071025;28;20060;-72
2022/04/01 11:55:20;;;;;;;0.00;0.00;;;;;;;;;;5067689;28;20103;-72
2022/04/01 11:57:47;;;;;;;0.00;0.00;;;;;;;;;;5072220;28;20072;-73
2022/04/01 12:00:15;;;;;;;0.10;0.10;;;;;;;;;;5069000;28;20032;-73
2022/04/01 12:02:42;;;;;;;0.00;0.00;;;;;;;;;;5063533;28;20091;-72
2022/04/01 12:05:09;;;;;;;0.00;0.00;;;;;;;;;;5065501;28;20028;-72
2022/04/01 12:10:21;;;;;;;0.00;0.00;;;;;;;;;;5066344;28;20093;-72
2022/04/01 12:12:54;;;;;;;1.00;0.95;;;;;;;;;;5067794;28;20028;-73
2022/04/01 12:15:40;;;;;;;1.92;1.42;;;;;;;;;;5051442;28;20398;-73
2022/04/01 12:18:08;;;;;;;0.00;0.00;;;;;;;;;;5050765;28;20472;-72
2022/04/01 12:20:48;;;;;;;0.00;0.00;;;;;;;;;;5049767;28;20655;-73
2022/04/01 12:23:15;;;;;;;1.10;1.10;;;;;;;;;;5048814;28;20104;-72
2022/04/01 12:25:43;;;;;;;0.00;0.00;;;;;;;;;;5034364;28;20383;-72
2022/04/01 12:28:10;;;;;;;0.70;0.70;;;;;;;;;;5032244;28;20167;-73
2022/04/01 12:30:55;;;;;;;0.00;0.00;;;;;;;;;;5048898;28;20380;-72
2022/04/01 12:33:25;;;;;;;0.35;0.35;;;;;;;;;;5033318;28;20024;-70
2022/04/01 12:35:59;;;;;;;0.00;0.00;;;;;;;;;;5034319;28;20485;-71
2022/04/01 12:38:27;;;;;;;0.00;0.00;;;;;;;;;;5050224;28;20028;-71
2022/04/01 12:40:55;;;;;;;0.00;0.00;;;;;;;;;;5030853;28;20029;-72
2022/04/01 12:43:29;;;;;;;0.00;0.00;;;;;;;;;;5030212;28;20032;-71
2022/04/01 12:46:07;;;;;;;0.00;0.00;;;;;;;;;;5047883;28;20021;-71
2022/04/01 12:48:50;;;;;;;0.00;0.00;;;;;;;;;;5027545;28;20031;-73
2022/04/01 12:51:22;;;;;;;0.00;0.00;;;;;;;;;;5043465;28;20454;-73
2022/04/01 12:53:52;;;;;;;0.00;0.00;;;;;;;;;;5019609;28;20025;-72
2022/04/01 12:56:23;;;;;;;0.00;0.00;;;;;;;;;;5032175;28;20033;-72
2022/04/01 12:58:53;;;;;;;0.00;0.00;;;;;;;;;;5022364;28;20481;-72
2022/04/01 13:01:27;;;;;;;0.00;0.00;;;;;;;;;;5047214;28;20103;-72
2022/04/01 13:03:54;;;;;;;0.00;0.00;;;;;;;;;;5047668;28;20103;-72
2022/04/01 13:06:23;;;;;;;0.00;0.00;;;;;;;;;;5048915;28;20377;-72
2022/04/01 13:08:59;;;;;;;0.00;0.00;;;;;;;;;;5031768;28;20389;-72
2022/04/01 13:11:41;;;;;;;0.00;0.00;;;;;;;;;;5032222;28;20036;-72
2022/04/01 13:14:27;;;;;;;0.08;0.08;;;;;;;;;;5040550;28;20526;-72
2022/04/01 13:16:56;;;;;;;0.00;0.00;;;;;;;;;;5062438;28;20032;-73
2022/04/01 13:19:26;;;;;;;0.10;0.10;;;;;;;;;;5068088;28;20029;-72
2022/04/01 13:21:54;;;;;;;0.00;0.00;;;;;;;;;;5070713;28;20016;-71
2022/04/01 13:24:21;;;;;;;0.00;0.00;;;;;;;;;;5069510;28;20016;-71
2022/04/01 13:26:48;;;;;;;0.00;0.00;;;;;;;;;;5070182;28;20024;-71
2022/04/01 13:29:14;;;;;;;0.00;0.00;;;;;;;;;;5063760;28;20017;-71
2022/04/01 13:31:41;;;;;;;0.00;0.00;;;;;;;;;;5070101;28;20113;-71
2022/04/01 13:34:08;;;;;;;0.00;0.00;;;;;;;;;;5066586;28;20610;-72
2022/04/01 13:36:38;;;;;;;0.00;0.00;;;;;;;;;;5067520;28;20074;-71
2022/04/01 13:39:05;;;;;;;0.00;0.00;;;;;;;;;;5068113;28;20020;-72
2022/04/01 13:41:32;;;;;;;0.35;0.35;;;;;;;;;;5064939;28;20043;-72
2022/04/01 13:43:59;;;;;;;0.00;0.00;;;;;;;;;;5066737;28;20392;-72
2022/04/01 13:46:25;;;;;;;0.00;0.00;;;;;;;;;;5066437;28;20027;-73
2022/04/01 13:48:53;;;;;;;0.00;0.00;;;;;;;;;;5064464;28;20020;-71
2022/04/01 13:51:20;;;;;;;0.00;0.00;;;;;;;;;;5070139;28;20103;-71
2022/04/01 13:53:46;;;;;;;0.85;0.85;;;;;;;;;;5070756;28;20082;-74
2022/04/01 13:56:13;;;;;;;6.30;5.93;;;;;;;;;;5068899;28;20020;-74
2022/04/01 13:58:39;;;;;;;0.00;0.00;;;;;;;;;;5067564;28;20048;-71
2022/04/01 14:01:06;;;;;;;0.25;0.25;;;;;;;;;;5063748;28;20032;-72
2022/04/01 14:03:33;;;;;;;0.00;0.00;;;;;;;;;;5069710;28;20531;-72
2022/04/01 14:05:59;;;;;;;0.00;0.00;;;;;;;;;;5068771;28;20464;-73
2022/04/01 14:08:26;;;;;;;0.00;0.00;;;;;;;;;;5068928;28;20052;-72
2022/04/01 14:10:52;;;;;;;0.20;0.20;;;;;;;;;;5070757;28;20033;-72
2022/04/01 14:13:18;;;;;;;0.08;0.08;;;;;;;;;;5069447;28;20028;-72
2022/04/01 14:15:45;;;;;;;0.00;0.00;;;;;;;;;;5048194;28;20045;-72
2022/04/01 14:18:11;;;;;;;0.00;0.00;;;;;;;;;;5034155;28;20049;-71
2022/04/01 14:20:37;;;;;;;0.55;0.55;;;;;;;;;;5050131;28;20079;-71
2022/04/01 14:23:04;;;;;;;0.00;0.00;;;;;;;;;;5047385;28;20484;-71
2022/04/01 14:25:30;;;;;;;36.65;33.90;;;;;;;;;;5027633;28;20477;-72
2022/04/01 14:27:56;;;;;;;0.00;0.00;;;;;;;;;;5034428;28;20090;-72
2022/04/01 14:30:22;;;;;;;0.32;0.32;;;;;;;;;;5031660;28;20029;-72
2022/04/01 14:32:53;;;;;;;10.63;9.98;;;;;;;;;;5044603;28;20056;-72
2022/04/01 14:35:20;;;;;;;1.77;1.75;;;;;;;;;;5049977;28;20025;-71
2022/04/01 14:37:47;;;;;;;0.00;0.00;;;;;;;;;;5027184;28;20029;-71
2022/04/01 14:40:14;;;;;;;4.45;2.53;;;;;;;;;;5031617;28;20056;-71
2022/04/01 14:42:41;;;;;;;0.20;0.20;;;;;;;;;;5032137;28;20381;-72
2022/04/01 14:45:07;;;;;;;0.00;0.00;;;;;;;;;;5048890;28;20017;-73
2022/04/01 14:47:34;;;;;;;0.00;0.00;;;;;;;;;;5043195;28;20025;-73
2022/04/01 14:50:00;;;;;;;0.35;0.35;;;;;;;;;;5033478;28;20021;-75
2022/04/01 14:52:27;;;;;;;0.00;0.00;;;;;;;;;;5050454;28;20091;-74
2022/04/01 14:54:53;;;;;;;0.13;0.13;;;;;;;;;;5050161;28;20024;-74
2022/04/01 14:57:20;;;;;;;1.85;1.75;;;;;;;;;;5049455;28;20028;-71
2022/04/01 14:59:47;;;;;;;0.00;0.00;;;;;;;;;;5048941;28;20116;-73
2022/04/01 15:02:14;;;;;;;0.30;0.30;;;;;;;;;;5053059;28;20024;-73
2022/04/01 15:04:40;;;;;;;8.43;8.02;;;;;;;;;;5051364;28;20082;-72
2022/04/01 15:07:07;;;;;;;0.35;0.35;;;;;;;;;;5037068;28;20112;-72
2022/04/01 15:09:37;;;;;;;0.32;0.20;;;;;;;;;;5053793;28;20075;-72